Time,TemperatureF,DewpointF,PressureIn,WindDirection,WindDirectionDegrees,WindSpeedMPH,WindSpeedGustMPH,Humidity,HourlyPrecipIn,Conditions,Clouds,dailyrainin,SoftwareType,DateUTC
2013-01-29 00:00:00,30.5,29.8,29.98,SSW,203,0.0,0.0,97,0.00,,OVC006,0.00,VWS V14.01,2013-01-29 05:00:00,
2013-01-29 00:10:00,30.6,29.9,29.98,SW,225,0.0,0.0,97,0.00,,,0.00,VWS V14.01,2013-01-29 05:10:00,
2013-01-29 00:20:00,30.5,29.8,29.98,SW,225,0.0,0.0,97,0.00,,,0.00,VWS V14.01,2013-01-29 05:20:00,
2013-01-29 00:30:00,30.5,29.8,29.98,SE,134,0.0,0.0,97,0.00,,,0.00,VWS V14.01,2013-01-29 05:30:00,
2013-01-29 00:40:00,30.5,29.8,29.98,SSW,203,0.0,0.0,97,0.00,,,0.00,VWS V14.01,2013-01-29 05:40:00,
2013-01-29 00:50:00,30.5,29.8,29.98,SSW,203,0.0,0.0,97,0.00,,,0.00,VWS V14.01,2013-01-29 05:50:00,
2013-01-29 01:00:00,30.7,30.0,30.01,SSW,203,0.0,0.0,97,0.00,,OVC006,0.00,VWS V14.01,2013-01-29 06:00:00,
2013-01-29 01:01:00,30.5,29.8,29.98,SSW,203,0.0,0.0,97,0.00,,,0.00,VWS V14.01,2013-01-29 06:01:00,
2013-01-29 01:10:00,30.6,29.9,29.98,SSW,203,0.0,0.0,97,0.00,,,0.00,VWS V14.01,2013-01-29 06:10:00,
2013-01-29 01:20:00,30.6,29.9,29.99,SSW,203,0.0,0.0,97,0.00,,,0.00,VWS V14.01,2013-01-29 06:20:00,
2013-01-29 01:30:00,30.7,30.0,30.01,SSW,203,0.0,0.0,97,0.00,,OVC006,0.00,VWS V14.01,2013-01-29 06:30:00,
2013-01-29 01:31:00,30.6,29.9,29.99,SSW,202,0.0,0.0,97,0.00,,,0.00,VWS V14.01,2013-01-29 06:31:00,
2013-01-29 01:40:00,30.6,29.9,30.00,SSW,203,0.0,0.0,97,0.00,,,0.00,VWS V14.01,2013-01-29 06:40:00,
2013-01-29 01:50:00,30.7,30.0,30.00,SSW,202,0.0,0.0,97,0.00,,,0.00,VWS V14.01,2013-01-29 06:50:00,
2013-01-29 02:00:00,30.7,30.0,30.01,SSW,203,0.0,0.0,97,0.00,,,0.00,VWS V14.01,2013-01-29 07:00:00,
2013-01-29 02:10:00,30.7,30.0,30.00,SSW,203,0.0,0.0,97,0.00,,,0.00,VWS V14.01,2013-01-29 07:10:00,
2013-01-29 02:20:00,30.7,30.0,30.00,SSW,203,0.0,0.0,97,0.00,,,0.00,VWS V14.01,2013-01-29 07:20:00,
2013-01-29 02:30:00,30.7,30.0,30.01,SSW,203,0.0,0.0,97,0.00,,,0.00,VWS V14.01,2013-01-29 07:30:00,
2013-01-29 02:40:00,30.7,30.0,30.01,SSW,203,0.0,0.0,97,0.00,,,0.00,VWS V14.01,2013-01-29 07:40:00,
2013-01-29 02:50:00,30.7,30.0,30.01,SSW,203,0.0,0.0,97,0.00,,,0.00,VWS V14.01,2013-01-29 07:50:00,
2013-01-29 03:00:00,29.4,28.7,30.02,ENE,61,0.0,0.0,97,0.00,,OVC006,0.00,VWS V14.01,2013-01-29 08:00:00,
2013-01-29 03:01:00,30.4,29.6,30.02,East,79,0.0,0.0,97,0.00,,,0.00,VWS V14.01,2013-01-29 08:01:00,
2013-01-29 03:10:00,29.6,28.6,30.02,ENE,69,0.0,1.0,96,0.00,,,0.00,VWS V14.01,2013-01-29 08:10:00,
2013-01-29 03:20:00,29.3,28.3,30.02,ENE,67,0.0,2.0,96,0.00,,,0.00,VWS V14.01,2013-01-29 08:20:00,
2013-01-29 03:30:00,29.2,28.5,30.02,ENE,60,0.0,0.0,97,0.00,,,0.00,VWS V14.01,2013-01-29 08:30:00,
2013-01-29 03:40:00,29.2,28.5,30.02,ENE,60,0.0,0.0,97,0.00,,,0.00,VWS V14.01,2013-01-29 08:40:00,
2013-01-29 03:50:00,29.3,28.6,30.02,ENE,61,0.0,0.0,97,0.00,,,0.00,VWS V14.01,2013-01-29 08:50:00,
2013-01-29 04:00:00,29.6,28.9,30.04,NE,51,0.0,0.0,97,0.00,,OVC006,0.00,VWS V14.01,2013-01-29 09:00:00,
2013-01-29 04:01:00,29.4,28.7,30.02,ENE,61,0.0,0.0,97,0.00,,,0.00,VWS V14.01,2013-01-29 09:01:00,
2013-01-29 04:10:00,29.3,28.6,30.03,ENE,60,0.0,0.0,97,0.00,,,0.00,VWS V14.01,2013-01-29 09:10:00,
2013-01-29 04:20:00,29.4,28.7,30.03,SE,145,0.0,0.0,97,0.00,,,0.00,VWS V14.01,2013-01-29 09:20:00,
2013-01-29 04:30:00,29.4,28.7,30.03,SE,145,0.0,0.0,97,0.00,,,0.00,VWS V14.01,2013-01-29 09:30:00,
2013-01-29 04:40:00,29.6,28.9,30.03,NE,51,0.0,0.0,97,0.00,,,0.00,VWS V14.01,2013-01-29 09:40:00,
2013-01-29 04:50:00,29.7,29.0,30.04,NE,53,0.0,0.0,97,0.00,,,0.00,VWS V14.01,2013-01-29 09:50:00,
2013-01-29 05:00:00,29.6,28.9,30.04,NE,51,0.0,0.0,97,0.00,,,0.00,VWS V14.01,2013-01-29 10:00:00,
2013-01-29 05:10:00,29.6,28.9,30.05,NE,51,0.0,0.0,97,0.00,,,0.00,VWS V14.01,2013-01-29 10:10:00,
2013-01-29 05:20:00,29.7,29.0,30.06,NE,52,0.0,0.0,97,0.00,,,0.00,VWS V14.01,2013-01-29 10:20:00,
2013-01-29 05:30:00,29.8,29.0,30.06,NE,51,0.0,0.0,97,0.00,,,0.00,VWS V14.01,2013-01-29 10:30:00,
2013-01-29 05:40:00,29.6,28.9,30.06,WSW,238,0.0,0.0,97,0.00,,,0.00,VWS V14.01,2013-01-29 10:40:00,
2013-01-29 05:50:00,29.7,29.0,30.07,WSW,238,0.0,0.0,97,0.00,,,0.00,VWS V14.01,2013-01-29 10:50:00,
2013-01-29 06:00:00,29.4,28.7,30.10,East,101,0.0,0.0,97,0.00,,OVC006,0.00,VWS V14.01,2013-01-29 11:00:00,
2013-01-29 06:01:00,29.9,29.1,30.06,WSW,237,0.0,0.0,97,0.00,,,0.00,VWS V14.01,2013-01-29 11:01:00,
2013-01-29 06:10:00,29.8,29.0,30.08,East,101,0.0,1.0,97,0.00,,,0.00,VWS V14.01,2013-01-29 11:10:00,
2013-01-29 06:20:00,29.7,29.0,30.08,East,88,0.0,2.0,97,0.00,,,0.00,VWS V14.01,2013-01-29 11:20:00,
2013-01-29 06:30:00,29.6,28.9,30.08,ESE,105,0.0,1.0,97,0.00,,,0.00,VWS V14.01,2013-01-29 11:30:00,
2013-01-29 06:40:00,29.5,28.8,30.07,SE,126,0.0,1.0,97,0.00,,,0.00,VWS V14.01,2013-01-29 11:40:00,
2013-01-29 06:50:00,29.4,28.7,30.09,East,101,0.0,0.0,97,0.00,,,0.00,VWS V14.01,2013-01-29 11:50:00,
2013-01-29 07:00:00,30.3,29.5,30.12,ENE,60,0.0,0.0,97,0.00,,OVC006,0.00,VWS V14.01,2013-01-29 12:00:00,
2013-01-29 07:01:00,29.4,28.7,30.10,East,101,0.0,0.0,97,0.00,,,0.00,VWS V14.01,2013-01-29 12:01:00,
2013-01-29 07:10:00,29.5,28.8,30.10,East,101,0.0,0.0,97,0.00,,OVC022,0.00,VWS V14.01,2013-01-29 12:10:00,
2013-01-29 07:20:00,29.6,28.9,30.09,ESE,111,0.0,0.0,97,0.00,,OVC022,0.00,VWS V14.01,2013-01-29 12:20:00,
2013-01-29 07:30:00,30.1,28.8,30.11,NE,53,0.0,1.0,95,0.00,,OVC006,0.00,VWS V14.01,2013-01-29 12:30:00,
2013-01-29 07:31:00,29.6,28.6,30.10,ENE,60,0.0,1.0,96,0.00,,OVC022,0.00,VWS V14.01,2013-01-29 12:31:00,
2013-01-29 07:40:00,29.8,29.0,30.11,ENE,60,0.0,0.0,97,0.00,,OVC022,0.00,VWS V14.01,2013-01-29 12:40:00,
2013-01-29 07:50:00,30.0,29.2,30.12,ENE,60,0.0,0.0,97,0.00,,OVC022,0.00,VWS V14.01,2013-01-29 12:50:00,
2013-01-29 08:00:00,30.3,29.5,30.12,ENE,60,0.0,0.0,97,0.00,,OVC022,0.00,VWS V14.01,2013-01-29 13:00:00,
2013-01-29 08:10:00,30.2,29.2,30.12,ESE,106,0.0,2.0,96,0.00,,OVC014,0.00,VWS V14.01,2013-01-29 13:10:00,
2013-01-29 08:20:00,30.2,29.2,30.12,ENE,72,0.0,2.0,96,0.00,,OVC014,0.00,VWS V14.01,2013-01-29 13:20:00,
2013-01-29 08:30:00,30.1,28.8,30.11,NE,53,0.0,1.0,95,0.00,,OVC014,0.00,VWS V14.01,2013-01-29 13:30:00,
2013-01-29 08:40:00,30.3,29.0,30.11,ENE,68,0.0,2.0,95,0.00,,OVC014,0.00,VWS V14.01,2013-01-29 13:40:00,
2013-01-29 08:50:00,30.7,29.4,30.11,ENE,68,0.0,1.0,95,0.00,,OVC014,0.00,VWS V14.01,2013-01-29 13:50:00,
2013-01-29 09:00:00,32.4,31.1,30.15,SE,137,0.0,0.0,95,0.00,,OVC006,0.00,VWS V14.01,2013-01-29 14:00:00,
2013-01-29 09:01:00,30.8,29.5,30.11,SE,124,0.0,1.0,95,0.00,,OVC014,0.00,VWS V14.01,2013-01-29 14:01:00,
2013-01-29 09:10:00,31.0,29.5,30.12,East,82,0.0,1.0,94,0.00,,OVC035,0.00,VWS V14.01,2013-01-29 14:10:00,
2013-01-29 09:20:00,31.0,29.7,30.12,SE,136,1.0,2.0,95,0.00,,OVC035,0.00,VWS V14.01,2013-01-29 14:20:00,
2013-01-29 09:30:00,30.9,29.4,30.13,East,101,0.0,2.0,94,0.00,,OVC035,0.00,VWS V14.01,2013-01-29 14:30:00,
2013-01-29 09:40:00,31.3,30.0,30.13,East,80,0.0,1.0,95,0.00,,OVC035,0.00,VWS V14.01,2013-01-29 14:40:00,
2013-01-29 09:50:00,32.0,30.7,30.14,SE,145,0.0,0.0,95,0.00,,OVC035,0.00,VWS V14.01,2013-01-29 14:50:00,
2013-01-29 10:00:00,33.3,32.0,30.14,ESE,119,0.0,1.0,95,0.00,,OVC006,0.00,VWS V14.01,2013-01-29 15:00:00,
2013-01-29 10:01:00,32.4,31.1,30.15,SE,137,0.0,0.0,95,0.00,,OVC035,0.00,VWS V14.01,2013-01-29 15:01:00,
2013-01-29 10:10:00,32.4,30.9,30.14,NE,53,0.0,1.0,94,0.00,,OVC033,0.00,VWS V14.01,2013-01-29 15:10:00,
2013-01-29 10:20:00,32.1,30.6,30.13,East,83,0.0,3.0,94,0.00,,OVC033,0.00,VWS V14.01,2013-01-29 15:20:00,
2013-01-29 10:30:00,32.1,30.6,30.14,SSW,199,0.0,2.0,94,0.00,,OVC033,0.00,VWS V14.01,2013-01-29 15:30:00,
2013-01-29 10:40:00,32.0,30.5,30.15,South,173,0.0,1.0,94,0.00,,OVC033,0.00,VWS V14.01,2013-01-29 15:40:00,
2013-01-29 10:50:00,32.3,30.8,30.14,East,82,0.0,1.0,94,0.00,,OVC033,0.00,VWS V14.01,2013-01-29 15:50:00,
2013-01-29 11:00:00,34.1,32.6,30.13,East,98,0.0,1.0,94,0.00,,OVC006,0.00,VWS V14.01,2013-01-29 16:00:00,
2013-01-29 11:01:00,33.3,32.0,30.14,ESE,119,0.0,1.0,95,0.00,,OVC033,0.00,VWS V14.01,2013-01-29 16:01:00,
2013-01-29 11:10:00,33.5,32.0,30.14,ESE,117,0.0,2.0,94,0.00,,OVC037,0.00,VWS V14.01,2013-01-29 16:10:00,
2013-01-29 11:20:00,33.4,31.9,30.14,ESE,115,0.0,1.0,94,0.00,,OVC037,0.00,VWS V14.01,2013-01-29 16:20:00,
2013-01-29 11:30:00,33.8,32.3,30.13,ESE,121,0.0,1.0,94,0.00,,OVC037,0.00,VWS V14.01,2013-01-29 16:30:00,
2013-01-29 11:40:00,34.2,32.7,30.13,SSE,148,0.0,0.0,94,0.00,,OVC037,0.00,VWS V14.01,2013-01-29 16:40:00,
2013-01-29 11:50:00,33.9,32.1,30.14,SW,232,0.0,2.0,93,0.00,,OVC037,0.00,VWS V14.01,2013-01-29 16:50:00,
2013-01-29 12:00:00,33.2,31.9,30.13,SSE,162,0.0,3.0,95,0.00,,OVC006,0.00,VWS V14.01,2013-01-29 17:00:00,
2013-01-29 12:01:00,34.1,32.6,30.13,East,98,0.0,1.0,94,0.00,,OVC037,0.00,VWS V14.01,2013-01-29 17:01:00,
2013-01-29 12:10:00,34.3,32.5,30.12,ESE,112,0.0,1.0,93,0.00,,OVC033,0.00,VWS V14.01,2013-01-29 17:10:00,
2013-01-29 12:20:00,33.8,32.0,30.12,ESE,118,0.0,2.0,93,0.00,,OVC033,0.00,VWS V14.01,2013-01-29 17:20:00,
2013-01-29 12:30:00,33.6,32.1,30.12,SSE,165,0.0,2.0,94,0.00,,OVC033,0.00,VWS V14.01,2013-01-29 17:30:00,
2013-01-29 12:40:00,33.5,32.0,30.12,SE,132,1.0,3.0,94,0.00,,OVC033,0.00,VWS V14.01,2013-01-29 17:40:00,
2013-01-29 12:50:00,33.3,31.8,30.12,ENE,77,1.0,2.0,94,0.00,,OVC033,0.00,VWS V14.01,2013-01-29 17:50:00,
2013-01-29 13:00:00,34.1,32.6,30.12,SE,145,0.0,1.0,94,0.00,,OVC006,0.00,VWS V14.01,2013-01-29 18:00:00,
2013-01-29 13:01:00,33.2,31.9,30.13,SSE,162,0.0,3.0,95,0.00,,OVC033,0.00,VWS V14.01,2013-01-29 18:01:00,
2013-01-29 13:10:00,33.6,32.3,30.13,SSE,166,0.0,2.0,95,0.00,,OVC033,0.00,VWS V14.01,2013-01-29 18:10:00,
2013-01-29 13:20:00,33.5,32.0,30.13,ESE,120,0.0,1.0,94,0.00,,OVC033,0.00,VWS V14.01,2013-01-29 18:20:00,
2013-01-29 13:30:00,33.3,32.0,30.12,ESE,103,0.0,4.0,95,0.00,,OVC006,0.00,VWS V14.01,2013-01-29 18:30:00,
2013-01-29 13:31:00,33.7,32.4,30.12,SSW,207,0.0,0.0,95,0.00,,OVC033,0.00,VWS V14.01,2013-01-29 18:31:00,
2013-01-29 13:40:00,34.3,33.0,30.12,SSE,151,0.0,2.0,95,0.00,,OVC033,0.00,VWS V14.01,2013-01-29 18:40:00,
2013-01-29 13:50:00,34.3,32.8,30.12,ESE,109,0.0,1.0,94,0.00,,OVC033,0.00,VWS V14.01,2013-01-29 18:50:00,
2013-01-29 14:00:00,33.1,31.8,30.14,East,87,0.0,3.0,95,0.01,,OVC006,0.01,VWS V14.01,2013-01-29 19:00:00,
2013-01-29 14:01:00,34.1,32.6,30.12,SE,145,0.0,1.0,94,0.00,,OVC033,0.00,VWS V14.01,2013-01-29 19:01:00,
2013-01-29 14:10:00,33.7,32.2,30.12,ESE,122,0.0,1.0,94,0.00,,OVC011,0.00,VWS V14.01,2013-01-29 19:10:00,
2013-01-29 14:20:00,33.6,32.3,30.12,ENE,60,0.0,1.0,95,0.00,,OVC011,0.00,VWS V14.01,2013-01-29 19:20:00,
2013-01-29 14:30:00,33.3,32.0,30.12,ESE,103,0.0,4.0,95,0.00,,OVC011,0.00,VWS V14.01,2013-01-29 19:30:00,
2013-01-29 14:40:00,33.3,32.0,30.12,NE,47,0.0,2.0,95,0.00,,OVC011,0.00,VWS V14.01,2013-01-29 19:40:00,
2013-01-29 14:50:00,33.1,31.8,30.13,NE,44,0.0,1.0,95,0.00,,OVC011,0.00,VWS V14.01,2013-01-29 19:50:00,
2013-01-29 15:00:00,32.6,31.6,30.12,SE,139,0.0,0.0,96,0.02,,OVC006,0.02,VWS V14.01,2013-01-29 20:00:00,
2013-01-29 15:01:00,33.1,31.8,30.14,East,87,0.0,3.0,95,0.01,,OVC011,0.01,VWS V14.01,2013-01-29 20:01:00,
2013-01-29 15:10:00,33.2,32.2,30.14,ESE,103,0.0,2.0,96,0.01,,,0.01,VWS V14.01,2013-01-29 20:10:00,
2013-01-29 15:20:00,33.2,32.2,30.13,East,89,0.0,0.0,96,0.02,,,0.02,VWS V14.01,2013-01-29 20:20:00,
2013-01-29 15:30:00,32.5,31.5,30.12,NE,55,0.0,2.0,96,0.01,,OVC006,0.03,VWS V14.01,2013-01-29 20:30:00,
2013-01-29 15:31:00,32.9,31.9,30.12,ENE,62,1.0,5.0,96,0.02,,,0.02,VWS V14.01,2013-01-29 20:31:00,
2013-01-29 15:40:00,32.6,31.6,30.12,ENE,62,1.0,6.0,96,0.02,,,0.02,VWS V14.01,2013-01-29 20:40:00,
2013-01-29 15:50:00,32.6,31.6,30.12,SE,132,0.0,3.0,96,0.02,,,0.02,VWS V14.01,2013-01-29 20:50:00,
2013-01-29 16:00:00,32.4,31.4,30.15,SSE,152,0.0,0.0,96,0.01,,OVC006,0.03,VWS V14.01,2013-01-29 21:00:00,
2013-01-29 16:01:00,32.6,31.6,30.12,SE,139,0.0,0.0,96,0.02,,,0.02,VWS V14.01,2013-01-29 21:01:00,
2013-01-29 16:10:00,32.6,31.6,30.13,ESE,108,0.0,2.0,96,0.01,,,0.02,VWS V14.01,2013-01-29 21:10:00,
2013-01-29 16:20:00,32.5,31.5,30.13,ESE,117,0.0,1.0,96,0.02,,,0.03,VWS V14.01,2013-01-29 21:20:00,
2013-01-29 16:30:00,32.4,31.4,30.15,SSE,152,0.0,0.0,96,0.00,,OVC006,0.03,VWS V14.01,2013-01-29 21:30:00,
2013-01-29 16:31:00,32.5,31.5,30.12,NE,55,0.0,2.0,96,0.01,,,0.03,VWS V14.01,2013-01-29 21:31:00,
2013-01-29 16:40:00,32.4,31.4,30.14,SSE,152,0.0,1.0,96,0.01,,,0.03,VWS V14.01,2013-01-29 21:40:00,
2013-01-29 16:50:00,32.4,31.4,30.14,SSE,152,0.0,0.0,96,0.01,,,0.03,VWS V14.01,2013-01-29 21:50:00,
2013-01-29 17:00:00,32.3,31.3,30.14,South,177,0.0,0.0,96,0.00,,OVC006,0.03,VWS V14.01,2013-01-29 22:00:00,
2013-01-29 17:01:00,32.4,31.4,30.15,SSE,152,0.0,0.0,96,0.01,,,0.03,VWS V14.01,2013-01-29 22:01:00,
2013-01-29 17:10:00,32.4,31.4,30.16,SSE,152,0.0,0.0,96,0.01,,,0.03,VWS V14.01,2013-01-29 22:10:00,
2013-01-29 17:20:00,32.4,31.4,30.15,SSE,151,0.0,0.0,96,0.01,,,0.03,VWS V14.01,2013-01-29 22:20:00,
2013-01-29 17:30:00,32.4,31.4,30.15,SSE,152,0.0,0.0,96,0.00,,,0.03,VWS V14.01,2013-01-29 22:30:00,
2013-01-29 17:40:00,32.5,31.5,30.14,SE,141,0.0,1.0,96,0.00,,,0.03,VWS V14.01,2013-01-29 22:40:00,
2013-01-29 17:50:00,32.3,31.3,30.14,SE,124,0.0,2.0,96,0.00,,,0.03,VWS V14.01,2013-01-29 22:50:00,
2013-01-29 18:00:00,32.4,31.6,30.12,SSE,160,0.0,0.0,97,0.00,,OVC006,0.03,VWS V14.01,2013-01-29 23:00:00,
2013-01-29 18:01:00,32.3,31.3,30.14,South,177,0.0,0.0,96,0.00,,,0.03,VWS V14.01,2013-01-29 23:01:00,
2013-01-29 18:10:00,32.3,31.3,30.12,SSE,154,0.0,1.0,96,0.00,,,0.03,VWS V14.01,2013-01-29 23:10:00,
2013-01-29 18:20:00,32.3,31.5,30.12,ESE,117,0.0,0.0,97,0.00,,,0.03,VWS V14.01,2013-01-29 23:20:00,
2013-01-29 18:30:00,32.3,31.5,30.13,ESE,117,0.0,0.0,97,0.00,,,0.03,VWS V14.01,2013-01-29 23:30:00,
2013-01-29 18:40:00,32.3,31.5,30.12,ESE,117,0.0,0.0,97,0.00,,,0.03,VWS V14.01,2013-01-29 23:40:00,
2013-01-29 18:50:00,32.4,31.6,30.12,SE,125,0.0,1.0,97,0.00,,,0.03,VWS V14.01,2013-01-29 23:50:00,
2013-01-29 19:00:00,32.4,31.6,30.13,SE,124,0.0,0.0,97,0.00,,OVC006,0.03,VWS V14.01,2013-01-30 00:00:00,
2013-01-29 19:01:00,32.4,31.6,30.12,SSE,160,0.0,0.0,97,0.00,,,0.03,VWS V14.01,2013-01-30 00:01:00,
2013-01-29 19:10:00,32.4,31.6,30.12,SE,124,0.0,0.0,97,0.00,,,0.03,VWS V14.01,2013-01-30 00:10:00,
2013-01-29 19:20:00,32.4,31.6,30.13,SE,124,0.0,0.0,97,0.00,,,0.03,VWS V14.01,2013-01-30 00:20:00,
2013-01-29 19:30:00,32.4,31.6,30.14,SE,124,0.0,0.0,97,0.00,,,0.03,VWS V14.01,2013-01-30 00:30:00,
2013-01-29 19:40:00,32.3,31.5,30.14,SE,124,0.0,0.0,97,0.00,,,0.03,VWS V14.01,2013-01-30 00:40:00,
2013-01-29 19:50:00,32.4,31.6,30.13,SE,124,0.0,0.0,97,0.00,,,0.03,VWS V14.01,2013-01-30 00:50:00,
2013-01-29 20:00:00,32.7,31.9,30.13,ESE,117,0.0,0.0,97,0.00,,OVC006,0.03,VWS V14.01,2013-01-30 01:00:00,
2013-01-29 20:01:00,32.4,31.6,30.13,SE,124,0.0,0.0,97,0.00,,,0.03,VWS V14.01,2013-01-30 01:01:00,
2013-01-29 20:10:00,32.5,31.7,30.13,SE,124,0.0,0.0,97,0.00,,-RA,0.03,VWS V14.01,2013-01-30 01:10:00,
2013-01-29 20:20:00,32.6,31.8,30.14,SE,124,0.0,0.0,97,0.00,,-RA,0.03,VWS V14.01,2013-01-30 01:20:00,
2013-01-29 20:30:00,32.7,31.9,30.13,SE,124,0.0,0.0,97,0.00,,-RA,0.03,VWS V14.01,2013-01-30 01:30:00,
2013-01-29 20:40:00,32.7,31.9,30.12,South,181,0.0,1.0,97,0.00,,-RA,0.03,VWS V14.01,2013-01-30 01:40:00,
2013-01-29 20:50:00,32.7,31.9,30.13,ESE,117,0.0,0.0,97,0.00,,-RA,0.03,VWS V14.01,2013-01-30 01:50:00,
2013-01-29 21:00:00,32.5,31.8,30.11,South,172,0.0,1.0,97,0.02,,OVC006,0.05,VWS V14.01,2013-01-30 02:00:00,
2013-01-29 21:01:00,32.7,31.9,30.13,ESE,117,0.0,0.0,97,0.00,,-RA,0.03,VWS V14.01,2013-01-30 02:01:00,
2013-01-29 21:10:00,32.8,32.0,30.14,East,97,0.0,0.0,97,0.00,,-RA,0.03,VWS V14.01,2013-01-30 02:10:00,
2013-01-29 21:20:00,32.7,31.9,30.13,ESE,108,0.0,0.0,97,0.01,,-RA,0.04,VWS V14.01,2013-01-30 02:20:00,
2013-01-29 21:30:00,32.7,31.9,30.12,SSE,159,0.0,1.0,97,0.01,,-RA,0.04,VWS V14.01,2013-01-30 02:30:00,
2013-01-29 21:40:00,32.6,31.8,30.12,SSE,162,0.0,1.0,97,0.01,,-RA,0.04,VWS V14.01,2013-01-30 02:40:00,
2013-01-29 21:50:00,32.5,31.7,30.11,SSE,155,0.0,2.0,97,0.02,,-RA,0.05,VWS V14.01,2013-01-30 02:50:00,
2013-01-29 22:00:00,32.4,31.9,30.10,SE,129,0.0,0.0,98,0.01,,OVC006,0.06,VWS V14.01,2013-01-30 03:00:00,
2013-01-29 22:01:00,32.5,31.7,30.11,South,172,0.0,1.0,97,0.02,,-RA,0.05,VWS V14.01,2013-01-30 03:01:00,
2013-01-29 22:10:00,32.5,32.0,30.11,SSE,166,0.0,0.0,98,0.02,,-RA,0.05,VWS V14.01,2013-01-30 03:10:00,
2013-01-29 22:20:00,32.5,32.0,30.11,SSE,165,0.0,0.0,98,0.02,,-RA,0.05,VWS V14.01,2013-01-30 03:20:00,
2013-01-29 22:30:00,32.5,32.0,30.12,SE,132,0.0,0.0,98,0.02,,-RA,0.06,VWS V14.01,2013-01-30 03:30:00,
2013-01-29 22:40:00,32.4,31.9,30.10,SE,129,0.0,0.0,98,0.02,,-RA,0.06,VWS V14.01,2013-01-30 03:40:00,
2013-01-29 22:50:00,32.4,31.9,30.10,SE,130,0.0,0.0,98,0.02,,-RA,0.06,VWS V14.01,2013-01-30 03:50:00,
2013-01-29 23:00:00,32.5,32.0,30.10,SE,129,0.0,0.0,98,0.00,,OVC006,0.06,VWS V14.01,2013-01-30 04:00:00,
2013-01-29 23:01:00,32.4,31.9,30.10,SE,129,0.0,0.0,98,0.01,,-RA,0.06,VWS V14.01,2013-01-30 04:01:00,
2013-01-29 23:10:00,32.4,31.9,30.11,SE,130,0.0,0.0,98,0.01,,,0.06,VWS V14.01,2013-01-30 04:10:00,
2013-01-29 23:20:00,32.4,31.9,30.12,SE,129,0.0,0.0,98,0.01,,,0.06,VWS V14.01,2013-01-30 04:20:00,
2013-01-29 23:30:00,32.4,31.9,30.11,SE,130,0.0,0.0,98,0.01,,,0.06,VWS V14.01,2013-01-30 04:30:00,
2013-01-29 23:40:00,32.5,32.0,30.10,SE,130,0.0,0.0,98,0.00,,,0.06,VWS V14.01,2013-01-30 04:40:00,
2013-01-29 23:50:00,32.5,32.0,30.11,SE,129,0.0,0.0,98,0.00,,,0.06,VWS V14.01,2013-01-30 04:50:00,